sensor_id;sensor_type;location;lat;lon;timestamp;P1;durP1;ratioP1;P2;durP2;ratioP2
75191;SDS011;63771;52.580;9.734;2023-08-08T00:00:46;1.55;;;1.45;;
75191;SDS011;63771;52.580;9.734;2023-08-08T00:03:12;1.90;;;1.60;;
75191;SDS011;63771;52.580;9.734;2023-08-08T00:05:38;2.78;;;1.95;;
75191;SDS011;63771;52.580;9.734;2023-08-08T00:08:03;4.87;;;1.87;;
75191;SDS011;63771;52.580;9.734;2023-08-08T00:10:29;3.33;;;1.35;;
75191;SDS011;63771;52.580;9.734;2023-08-08T00:12:54;3.85;;;1.77;;
75191;SDS011;63771;52.580;9.734;2023-08-08T00:15:19;2.90;;;2.03;;
75191;SDS011;63771;52.580;9.734;2023-08-08T00:17:45;2.17;;;1.87;;
75191;SDS011;63771;52.580;9.734;2023-08-08T00:20:10;3.20;;;1.67;;
75191;SDS011;63771;52.580;9.734;2023-08-08T00:22:35;1.77;;;1.67;;
75191;SDS011;63771;52.580;9.734;2023-08-08T00:25:01;4.50;;;2.80;;
75191;SDS011;63771;52.580;9.734;2023-08-08T00:27:27;6.20;;;2.92;;
75191;SDS011;63771;52.580;9.734;2023-08-08T00:29:52;5.18;;;2.35;;
75191;SDS011;63771;52.580;9.734;2023-08-08T00:32:18;4.10;;;2.60;;
75191;SDS011;63771;52.580;9.734;2023-08-08T00:34:44;4.30;;;1.80;;
75191;SDS011;63771;52.580;9.734;2023-08-08T00:37:09;4.45;;;2.28;;
75191;SDS011;63771;52.580;9.734;2023-08-08T00:39:34;3.40;;;2.30;;
75191;SDS011;63771;52.580;9.734;2023-08-08T00:42:00;3.67;;;2.00;;
75191;SDS011;63771;52.580;9.734;2023-08-08T00:44:25;2.30;;;2.20;;
75191;SDS011;63771;52.580;9.734;2023-08-08T00:46:50;3.20;;;1.92;;
75191;SDS011;63771;52.580;9.734;2023-08-08T00:49:16;2.60;;;2.07;;
75191;SDS011;63771;52.580;9.734;2023-08-08T00:51:41;6.15;;;2.13;;
75191;SDS011;63771;52.580;9.734;2023-08-08T00:54:07;2.22;;;1.83;;
75191;SDS011;63771;52.580;9.734;2023-08-08T00:56:33;2.33;;;1.70;;
75191;SDS011;63771;52.580;9.734;2023-08-08T00:59:00;2.20;;;1.98;;
75191;SDS011;63771;52.580;9.734;2023-08-08T01:01:25;3.50;;;1.90;;
75191;SDS011;63771;52.580;9.734;2023-08-08T01:03:50;3.20;;;2.20;;
75191;SDS011;63771;52.580;9.734;2023-08-08T01:06:23;2.40;;;2.20;;
75191;SDS011;63771;52.580;9.734;2023-08-08T01:09:01;2.33;;;2.13;;
75191;SDS011;63771;52.580;9.734;2023-08-08T01:11:32;1.73;;;1.60;;
75191;SDS011;63771;52.580;9.734;2023-08-08T01:13:59;7.05;;;2.70;;
75191;SDS011;63771;52.580;9.734;2023-08-08T01:16:26;3.28;;;2.00;;
75191;SDS011;63771;52.580;9.734;2023-08-08T01:18:52;2.75;;;2.20;;
75191;SDS011;63771;52.580;9.734;2023-08-08T01:21:17;5.15;;;2.08;;
75191;SDS011;63771;52.580;9.734;2023-08-08T01:23:46;2.07;;;1.93;;
75191;SDS011;63771;52.580;9.734;2023-08-08T01:26:39;2.58;;;2.00;;
75191;SDS011;63771;52.580;9.734;2023-08-08T01:29:06;3.15;;;1.83;;
75191;SDS011;63771;52.580;9.734;2023-08-08T01:31:31;2.92;;;1.77;;
75191;SDS011;63771;52.580;9.734;2023-08-08T01:33:56;3.80;;;2.72;;
75191;SDS011;63771;52.580;9.734;2023-08-08T01:36:24;4.53;;;1.80;;
75191;SDS011;63771;52.580;9.734;2023-08-08T01:38:53;1.95;;;1.85;;
75191;SDS011;63771;52.580;9.734;2023-08-08T01:41:24;8.52;;;3.58;;
75191;SDS011;63771;52.580;9.734;2023-08-08T01:43:50;4.30;;;1.98;;
75191;SDS011;63771;52.580;9.734;2023-08-08T01:46:17;2.38;;;1.92;;
75191;SDS011;63771;52.580;9.734;2023-08-08T01:48:45;3.33;;;3.13;;
75191;SDS011;63771;52.580;9.734;2023-08-08T01:51:11;3.08;;;1.83;;
75191;SDS011;63771;52.580;9.734;2023-08-08T01:53:37;7.47;;;2.10;;
75191;SDS011;63771;52.580;9.734;2023-08-08T01:56:02;2.23;;;2.00;;
75191;SDS011;63771;52.580;9.734;2023-08-08T01:58:28;3.35;;;2.17;;
75191;SDS011;63771;52.580;9.734;2023-08-08T02:00:53;3.53;;;2.50;;
75191;SDS011;63771;52.580;9.734;2023-08-08T02:03:18;2.17;;;1.80;;
75191;SDS011;63771;52.580;9.734;2023-08-08T02:05:44;2.37;;;2.20;;
75191;SDS011;63771;52.580;9.734;2023-08-08T02:08:09;5.80;;;2.50;;
75191;SDS011;63771;52.580;9.734;2023-08-08T02:10:34;2.07;;;1.97;;
75191;SDS011;63771;52.580;9.734;2023-08-08T02:12:59;2.28;;;2.08;;
75191;SDS011;63771;52.580;9.734;2023-08-08T02:15:25;2.93;;;2.23;;
75191;SDS011;63771;52.580;9.734;2023-08-08T02:17:50;3.03;;;2.50;;
75191;SDS011;63771;52.580;9.734;2023-08-08T02:20:15;4.32;;;2.35;;
75191;SDS011;63771;52.580;9.734;2023-08-08T02:22:41;3.28;;;2.28;;
75191;SDS011;63771;52.580;9.734;2023-08-08T02:25:06;2.20;;;2.10;;
75191;SDS011;63771;52.580;9.734;2023-08-08T02:27:32;3.72;;;1.98;;
75191;SDS011;63771;52.580;9.734;2023-08-08T02:29:57;5.37;;;2.20;;
75191;SDS011;63771;52.580;9.734;2023-08-08T02:32:23;3.37;;;2.03;;
75191;SDS011;63771;52.580;9.734;2023-08-08T02:34:48;2.58;;;2.38;;
75191;SDS011;63771;52.580;9.734;2023-08-08T02:37:14;4.32;;;2.25;;
75191;SDS011;63771;52.580;9.734;2023-08-08T02:39:39;3.88;;;2.40;;
75191;SDS011;63771;52.580;9.734;2023-08-08T02:42:06;3.42;;;2.75;;
75191;SDS011;63771;52.580;9.734;2023-08-08T02:44:31;2.50;;;2.15;;
75191;SDS011;63771;52.580;9.734;2023-08-08T02:46:56;3.20;;;2.30;;
75191;SDS011;63771;52.580;9.734;2023-08-08T02:49:22;2.70;;;2.50;;
75191;SDS011;63771;52.580;9.734;2023-08-08T02:51:47;3.07;;;2.50;;
75191;SDS011;63771;52.580;9.734;2023-08-08T02:54:12;6.10;;;2.70;;
75191;SDS011;63771;52.580;9.734;2023-08-08T02:56:38;2.92;;;2.42;;
75191;SDS011;63771;52.580;9.734;2023-08-08T02:59:03;2.47;;;2.27;;
75191;SDS011;63771;52.580;9.734;2023-08-08T03:01:28;4.83;;;3.10;;
75191;SDS011;63771;52.580;9.734;2023-08-08T03:03:54;2.77;;;2.50;;
75191;SDS011;63771;52.580;9.734;2023-08-08T03:06:19;5.73;;;2.40;;
75191;SDS011;63771;52.580;9.734;2023-08-08T03:08:44;3.40;;;2.47;;
75191;SDS011;63771;52.580;9.734;2023-08-08T03:11:09;3.70;;;2.87;;
75191;SDS011;63771;52.580;9.734;2023-08-08T03:13:35;3.50;;;2.60;;
75191;SDS011;63771;52.580;9.734;2023-08-08T03:16:02;4.28;;;3.33;;
75191;SDS011;63771;52.580;9.734;2023-08-08T03:18:27;4.43;;;2.50;;
75191;SDS011;63771;52.580;9.734;2023-08-08T03:20:53;2.77;;;2.57;;
75191;SDS011;63771;52.580;9.734;2023-08-08T03:23:18;4.23;;;3.27;;
75191;SDS011;63771;52.580;9.734;2023-08-08T03:25:43;3.50;;;2.63;;
75191;SDS011;63771;52.580;9.734;2023-08-08T03:28:09;4.43;;;2.60;;
75191;SDS011;63771;52.580;9.734;2023-08-08T03:30:36;5.05;;;3.65;;
75191;SDS011;63771;52.580;9.734;2023-08-08T03:33:02;5.72;;;2.90;;
75191;SDS011;63771;52.580;9.734;2023-08-08T03:35:28;3.42;;;2.63;;
75191;SDS011;63771;52.580;9.734;2023-08-08T03:37:53;2.93;;;2.67;;
75191;SDS011;63771;52.580;9.734;2023-08-08T03:40:19;4.37;;;2.67;;
75191;SDS011;63771;52.580;9.734;2023-08-08T03:42:44;4.72;;;2.58;;
75191;SDS011;63771;52.580;9.734;2023-08-08T03:45:09;3.77;;;3.00;;
75191;SDS011;63771;52.580;9.734;2023-08-08T03:47:35;2.97;;;2.55;;
75191;SDS011;63771;52.580;9.734;2023-08-08T03:50:00;3.07;;;2.47;;
75191;SDS011;63771;52.580;9.734;2023-08-08T03:52:26;7.90;;;3.37;;
75191;SDS011;63771;52.580;9.734;2023-08-08T03:54:51;4.27;;;2.80;;
75191;SDS011;63771;52.580;9.734;2023-08-08T03:57:17;3.30;;;3.03;;
75191;SDS011;63771;52.580;9.734;2023-08-08T03:59:42;3.75;;;2.63;;
75191;SDS011;63771;52.580;9.734;2023-08-08T04:02:08;6.20;;;2.67;;
75191;SDS011;63771;52.580;9.734;2023-08-08T04:04:33;5.55;;;2.58;;
75191;SDS011;63771;52.580;9.734;2023-08-08T04:06:59;5.53;;;3.08;;
75191;SDS011;63771;52.580;9.734;2023-08-08T04:09:24;7.27;;;3.33;;
75191;SDS011;63771;52.580;9.734;2023-08-08T04:11:49;3.60;;;3.30;;
75191;SDS011;63771;52.580;9.734;2023-08-08T04:14:15;5.20;;;3.27;;
75191;SDS011;63771;52.580;9.734;2023-08-08T04:16:40;3.13;;;2.70;;
75191;SDS011;63771;52.580;9.734;2023-08-08T04:19:05;3.27;;;2.97;;
75191;SDS011;63771;52.580;9.734;2023-08-08T04:21:31;3.25;;;2.55;;
75191;SDS011;63771;52.580;9.734;2023-08-08T04:23:57;4.75;;;2.80;;
75191;SDS011;63771;52.580;9.734;2023-08-08T04:26:23;3.33;;;2.53;;
75191;SDS011;63771;52.580;9.734;2023-08-08T04:28:49;5.47;;;2.83;;
75191;SDS011;63771;52.580;9.734;2023-08-08T04:31:14;3.53;;;2.72;;
75191;SDS011;63771;52.580;9.734;2023-08-08T04:33:39;4.87;;;3.10;;
75191;SDS011;63771;52.580;9.734;2023-08-08T04:36:05;2.90;;;2.63;;
75191;SDS011;63771;52.580;9.734;2023-08-08T04:38:30;3.15;;;2.70;;
75191;SDS011;63771;52.580;9.734;2023-08-08T04:40:55;4.28;;;2.75;;
75191;SDS011;63771;52.580;9.734;2023-08-08T04:43:21;2.67;;;2.47;;
75191;SDS011;63771;52.580;9.734;2023-08-08T04:45:46;3.30;;;3.00;;
75191;SDS011;63771;52.580;9.734;2023-08-08T04:48:11;3.43;;;2.30;;
75191;SDS011;63771;52.580;9.734;2023-08-08T04:50:37;3.33;;;3.00;;
75191;SDS011;63771;52.580;9.734;2023-08-08T04:53:02;3.00;;;2.10;;
75191;SDS011;63771;52.580;9.734;2023-08-08T04:55:27;3.10;;;2.72;;
75191;SDS011;63771;52.580;9.734;2023-08-08T04:57:53;7.10;;;2.33;;
75191;SDS011;63771;52.580;9.734;2023-08-08T05:00:18;4.95;;;2.40;;
75191;SDS011;63771;52.580;9.734;2023-08-08T05:02:43;6.00;;;2.63;;
75191;SDS011;63771;52.580;9.734;2023-08-08T05:05:09;2.70;;;2.40;;
75191;SDS011;63771;52.580;9.734;2023-08-08T05:07:34;2.63;;;2.20;;
75191;SDS011;63771;52.580;9.734;2023-08-08T05:12:27;2.53;;;2.37;;
75191;SDS011;63771;52.580;9.734;2023-08-08T05:14:53;4.50;;;2.60;;
75191;SDS011;63771;52.580;9.734;2023-08-08T05:17:18;4.50;;;2.80;;
75191;SDS011;63771;52.580;9.734;2023-08-08T05:19:43;3.13;;;2.80;;
75191;SDS011;63771;52.580;9.734;2023-08-08T05:22:09;2.77;;;2.57;;
75191;SDS011;63771;52.580;9.734;2023-08-08T05:24:34;6.20;;;2.83;;
75191;SDS011;63771;52.580;9.734;2023-08-08T05:27:00;3.40;;;2.25;;
75191;SDS011;63771;52.580;9.734;2023-08-08T05:29:26;8.85;;;3.60;;
75191;SDS011;63771;52.580;9.734;2023-08-08T05:31:51;5.07;;;2.55;;
75191;SDS011;63771;52.580;9.734;2023-08-08T05:34:17;4.22;;;2.70;;
75191;SDS011;63771;52.580;9.734;2023-08-08T05:36:42;3.95;;;2.65;;
75191;SDS011;63771;52.580;9.734;2023-08-08T05:39:07;4.05;;;2.95;;
75191;SDS011;63771;52.580;9.734;2023-08-08T05:41:35;4.22;;;3.00;;
75191;SDS011;63771;52.580;9.734;2023-08-08T05:44:00;3.17;;;2.50;;
75191;SDS011;63771;52.580;9.734;2023-08-08T05:46:26;3.83;;;2.20;;
75191;SDS011;63771;52.580;9.734;2023-08-08T05:48:51;3.07;;;2.63;;
75191;SDS011;63771;52.580;9.734;2023-08-08T05:51:16;4.67;;;2.50;;
75191;SDS011;63771;52.580;9.734;2023-08-08T05:53:42;5.82;;;2.50;;
75191;SDS011;63771;52.580;9.734;2023-08-08T05:56:07;7.13;;;3.10;;
75191;SDS011;63771;52.580;9.734;2023-08-08T05:58:33;4.32;;;3.25;;
75191;SDS011;63771;52.580;9.734;2023-08-08T06:00:59;5.03;;;2.45;;
75191;SDS011;63771;52.580;9.734;2023-08-08T06:03:24;3.93;;;3.03;;
75191;SDS011;63771;52.580;9.734;2023-08-08T06:05:50;7.73;;;3.00;;
75191;SDS011;63771;52.580;9.734;2023-08-08T06:08:15;3.17;;;2.20;;
75191;SDS011;63771;52.580;9.734;2023-08-08T06:10:41;8.07;;;2.72;;
75191;SDS011;63771;52.580;9.734;2023-08-08T06:13:07;5.97;;;2.78;;
75191;SDS011;63771;52.580;9.734;2023-08-08T06:15:32;2.73;;;2.57;;
75191;SDS011;63771;52.580;9.734;2023-08-08T06:17:58;4.72;;;2.40;;
75191;SDS011;63771;52.580;9.734;2023-08-08T06:20:23;6.60;;;3.28;;
75191;SDS011;63771;52.580;9.734;2023-08-08T06:22:48;2.93;;;2.50;;
75191;SDS011;63771;52.580;9.734;2023-08-08T06:25:14;5.53;;;3.33;;
75191;SDS011;63771;52.580;9.734;2023-08-08T06:27:39;7.32;;;3.00;;
75191;SDS011;63771;52.580;9.734;2023-08-08T06:30:05;5.67;;;3.10;;
75191;SDS011;63771;52.580;9.734;2023-08-08T06:32:31;6.68;;;3.15;;
75191;SDS011;63771;52.580;9.734;2023-08-08T06:34:56;5.32;;;3.25;;
75191;SDS011;63771;52.580;9.734;2023-08-08T06:37:21;3.93;;;3.33;;
75191;SDS011;63771;52.580;9.734;2023-08-08T06:39:47;4.40;;;2.77;;
75191;SDS011;63771;52.580;9.734;2023-08-08T06:42:12;5.20;;;3.23;;
75191;SDS011;63771;52.580;9.734;2023-08-08T06:44:41;3.67;;;3.17;;
75191;SDS011;63771;52.580;9.734;2023-08-08T06:47:08;6.68;;;3.05;;
75191;SDS011;63771;52.580;9.734;2023-08-08T06:49:33;4.90;;;2.80;;
75191;SDS011;63771;52.580;9.734;2023-08-08T06:51:59;3.10;;;2.87;;
75191;SDS011;63771;52.580;9.734;2023-08-08T06:54:24;5.17;;;2.93;;
75191;SDS011;63771;52.580;9.734;2023-08-08T06:56:49;5.67;;;3.07;;
75191;SDS011;63771;52.580;9.734;2023-08-08T06:59:14;8.27;;;3.47;;
75191;SDS011;63771;52.580;9.734;2023-08-08T07:01:40;5.47;;;3.50;;
75191;SDS011;63771;52.580;9.734;2023-08-08T07:04:05;5.70;;;3.20;;
75191;SDS011;63771;52.580;9.734;2023-08-08T07:06:30;4.25;;;2.90;;
75191;SDS011;63771;52.580;9.734;2023-08-08T07:08:56;7.70;;;3.73;;
75191;SDS011;63771;52.580;9.734;2023-08-08T07:11:21;7.30;;;3.30;;
75191;SDS011;63771;52.580;9.734;2023-08-08T07:13:47;5.53;;;2.50;;
75191;SDS011;63771;52.580;9.734;2023-08-08T07:16:12;3.90;;;2.63;;
75191;SDS011;63771;52.580;9.734;2023-08-08T07:18:37;7.13;;;3.23;;
75191;SDS011;63771;52.580;9.734;2023-08-08T07:21:03;4.93;;;2.67;;
75191;SDS011;63771;52.580;9.734;2023-08-08T07:23:28;5.88;;;3.13;;
75191;SDS011;63771;52.580;9.734;2023-08-08T07:25:53;5.03;;;3.03;;
75191;SDS011;63771;52.580;9.734;2023-08-08T07:28:19;6.70;;;2.55;;
75191;SDS011;63771;52.580;9.734;2023-08-08T07:30:44;3.22;;;2.40;;
75191;SDS011;63771;52.580;9.734;2023-08-08T07:33:09;6.03;;;2.50;;
75191;SDS011;63771;52.580;9.734;2023-08-08T07:35:35;3.07;;;2.47;;
75191;SDS011;63771;52.580;9.734;2023-08-08T07:38:00;2.70;;;2.13;;
75191;SDS011;63771;52.580;9.734;2023-08-08T07:40:26;3.17;;;2.25;;
75191;SDS011;63771;52.580;9.734;2023-08-08T07:42:52;4.93;;;2.65;;
75191;SDS011;63771;52.580;9.734;2023-08-08T07:45:18;3.63;;;2.03;;
75191;SDS011;63771;52.580;9.734;2023-08-08T07:47:43;3.05;;;1.95;;
75191;SDS011;63771;52.580;9.734;2023-08-08T07:50:08;1.75;;;1.65;;
75191;SDS011;63771;52.580;9.734;2023-08-08T07:52:34;4.30;;;2.13;;
75191;SDS011;63771;52.580;9.734;2023-08-08T07:55:00;1.95;;;1.75;;
75191;SDS011;63771;52.580;9.734;2023-08-08T07:57:29;7.63;;;2.28;;
75191;SDS011;63771;52.580;9.734;2023-08-08T08:00:01;5.47;;;3.33;;
75191;SDS011;63771;52.580;9.734;2023-08-08T08:02:36;3.92;;;1.70;;
75191;SDS011;63771;52.580;9.734;2023-08-08T08:05:01;4.37;;;1.80;;
75191;SDS011;63771;52.580;9.734;2023-08-08T08:07:28;2.95;;;2.65;;
75191;SDS011;63771;52.580;9.734;2023-08-08T08:09:53;7.00;;;1.77;;
75191;SDS011;63771;52.580;9.734;2023-08-08T08:12:19;4.03;;;1.33;;
75191;SDS011;63771;52.580;9.734;2023-08-08T08:14:45;6.13;;;2.13;;
75191;SDS011;63771;52.580;9.734;2023-08-08T08:17:10;4.20;;;1.80;;
75191;SDS011;63771;52.580;9.734;2023-08-08T08:19:35;2.90;;;2.20;;
75191;SDS011;63771;52.580;9.734;2023-08-08T08:22:01;2.25;;;1.60;;
75191;SDS011;63771;52.580;9.734;2023-08-08T08:24:27;4.47;;;1.98;;
75191;SDS011;63771;52.580;9.734;2023-08-08T08:26:52;3.67;;;1.60;;
75191;SDS011;63771;52.580;9.734;2023-08-08T08:29:17;3.05;;;1.40;;
75191;SDS011;63771;52.580;9.734;2023-08-08T08:31:43;4.30;;;1.48;;
75191;SDS011;63771;52.580;9.734;2023-08-08T08:34:08;3.60;;;1.50;;
75191;SDS011;63771;52.580;9.734;2023-08-08T08:36:33;5.78;;;1.80;;
75191;SDS011;63771;52.580;9.734;2023-08-08T08:38:59;3.47;;;1.60;;
75191;SDS011;63771;52.580;9.734;2023-08-08T08:41:26;9.33;;;2.33;;
75191;SDS011;63771;52.580;9.734;2023-08-08T08:46:20;3.60;;;1.45;;
75191;SDS011;63771;52.580;9.734;2023-08-08T08:48:49;3.40;;;1.63;;
75191;SDS011;63771;52.580;9.734;2023-08-08T08:51:17;5.50;;;1.85;;
75191;SDS011;63771;52.580;9.734;2023-08-08T08:53:43;4.88;;;1.60;;
75191;SDS011;63771;52.580;9.734;2023-08-08T08:56:11;1.98;;;1.48;;
75191;SDS011;63771;52.580;9.734;2023-08-08T08:58:36;3.15;;;1.50;;
75191;SDS011;63771;52.580;9.734;2023-08-08T09:01:01;5.13;;;1.50;;
75191;SDS011;63771;52.580;9.734;2023-08-08T09:03:27;3.38;;;1.45;;
75191;SDS011;63771;52.580;9.734;2023-08-08T09:05:52;2.13;;;1.30;;
75191;SDS011;63771;52.580;9.734;2023-08-08T09:08:19;2.22;;;1.80;;
75191;SDS011;63771;52.580;9.734;2023-08-08T09:10:45;1.77;;;1.65;;
75191;SDS011;63771;52.580;9.734;2023-08-08T09:13:10;3.10;;;1.50;;
75191;SDS011;63771;52.580;9.734;2023-08-08T09:15:35;3.60;;;2.03;;
75191;SDS011;63771;52.580;9.734;2023-08-08T09:18:01;1.30;;;1.20;;
75191;SDS011;63771;52.580;9.734;2023-08-08T09:20:26;4.03;;;1.38;;
75191;SDS011;63771;52.580;9.734;2023-08-08T09:22:55;3.13;;;1.45;;
75191;SDS011;63771;52.580;9.734;2023-08-08T09:25:21;3.13;;;1.55;;
75191;SDS011;63771;52.580;9.734;2023-08-08T09:27:47;1.95;;;1.50;;
75191;SDS011;63771;52.580;9.734;2023-08-08T09:30:12;6.63;;;1.98;;
75191;SDS011;63771;52.580;9.734;2023-08-08T09:32:37;1.60;;;1.23;;
75191;SDS011;63771;52.580;9.734;2023-08-08T09:35:03;1.50;;;1.40;;
75191;SDS011;63771;52.580;9.734;2023-08-08T09:37:30;3.50;;;1.67;;
75191;SDS011;63771;52.580;9.734;2023-08-08T09:39:59;4.03;;;1.80;;
75191;SDS011;63771;52.580;9.734;2023-08-08T09:42:26;1.65;;;1.40;;
75191;SDS011;63771;52.580;9.734;2023-08-08T09:44:52;1.73;;;1.35;;
75191;SDS011;63771;52.580;9.734;2023-08-08T09:47:18;1.42;;;1.42;;
75191;SDS011;63771;52.580;9.734;2023-08-08T09:49:43;3.15;;;1.40;;
75191;SDS011;63771;52.580;9.734;2023-08-08T09:52:10;1.73;;;1.50;;
75191;SDS011;63771;52.580;9.734;2023-08-08T09:54:36;2.40;;;1.50;;
75191;SDS011;63771;52.580;9.734;2023-08-08T09:57:03;4.78;;;1.63;;
75191;SDS011;63771;52.580;9.734;2023-08-08T09:59:30;1.42;;;1.42;;
75191;SDS011;63771;52.580;9.734;2023-08-08T10:01:55;5.22;;;1.52;;
75191;SDS011;63771;52.580;9.734;2023-08-08T10:04:22;1.92;;;1.10;;
75191;SDS011;63771;52.580;9.734;2023-08-08T10:06:48;2.80;;;1.48;;
75191;SDS011;63771;52.580;9.734;2023-08-08T10:09:14;1.27;;;1.23;;
75191;SDS011;63771;52.580;9.734;2023-08-08T10:11:39;1.83;;;1.73;;
75191;SDS011;63771;52.580;9.734;2023-08-08T10:14:07;3.17;;;1.55;;
75191;SDS011;63771;52.580;9.734;2023-08-08T10:19:03;1.45;;;1.33;;
75191;SDS011;63771;52.580;9.734;2023-08-08T10:21:41;3.83;;;1.33;;
75191;SDS011;63771;52.580;9.734;2023-08-08T10:24:08;6.35;;;1.80;;
75191;SDS011;63771;52.580;9.734;2023-08-08T10:29:25;3.28;;;1.48;;
75191;SDS011;63771;52.580;9.734;2023-08-08T10:32:01;2.17;;;1.60;;
75191;SDS011;63771;52.580;9.734;2023-08-08T10:34:41;2.50;;;1.50;;
75191;SDS011;63771;52.580;9.734;2023-08-08T10:37:11;2.80;;;1.20;;
75191;SDS011;63771;52.580;9.734;2023-08-08T10:39:37;3.53;;;1.52;;
75191;SDS011;63771;52.580;9.734;2023-08-08T10:42:03;2.10;;;1.27;;
75191;SDS011;63771;52.580;9.734;2023-08-08T10:44:29;1.73;;;1.27;;
75191;SDS011;63771;52.580;9.734;2023-08-08T10:46:55;1.17;;;1.08;;
75191;SDS011;63771;52.580;9.734;2023-08-08T10:49:20;1.92;;;1.40;;
75191;SDS011;63771;52.580;9.734;2023-08-08T10:51:46;1.40;;;1.30;;
75191;SDS011;63771;52.580;9.734;2023-08-08T10:54:24;2.10;;;1.35;;
75191;SDS011;63771;52.580;9.734;2023-08-08T10:56:56;1.63;;;0.98;;
75191;SDS011;63771;52.580;9.734;2023-08-08T10:59:38;2.55;;;1.45;;
75191;SDS011;63771;52.580;9.734;2023-08-08T11:02:04;9.18;;;2.17;;
75191;SDS011;63771;52.580;9.734;2023-08-08T11:04:29;4.07;;;1.25;;
75191;SDS011;63771;52.580;9.734;2023-08-08T11:06:57;1.58;;;1.30;;
75191;SDS011;63771;52.580;9.734;2023-08-08T11:09:23;1.85;;;1.08;;
75191;SDS011;63771;52.580;9.734;2023-08-08T11:11:49;1.58;;;1.10;;
75191;SDS011;63771;52.580;9.734;2023-08-08T11:16:44;3.80;;;1.30;;
75191;SDS011;63771;52.580;9.734;2023-08-08T11:19:11;2.47;;;1.10;;
75191;SDS011;63771;52.580;9.734;2023-08-08T11:21:39;3.90;;;1.25;;
75191;SDS011;63771;52.580;9.734;2023-08-08T11:24:06;1.25;;;0.88;;
75191;SDS011;63771;52.580;9.734;2023-08-08T11:26:36;1.83;;;1.10;;
75191;SDS011;63771;52.580;9.734;2023-08-08T11:29:03;0.80;;;0.80;;
75191;SDS011;63771;52.580;9.734;2023-08-08T11:31:30;1.67;;;1.23;;
75191;SDS011;63771;52.580;9.734;2023-08-08T11:33:57;1.00;;;0.95;;
75191;SDS011;63771;52.580;9.734;2023-08-08T11:36:24;3.67;;;1.15;;
75191;SDS011;63771;52.580;9.734;2023-08-08T11:38:50;2.25;;;1.20;;
75191;SDS011;63771;52.580;9.734;2023-08-08T11:41:16;3.10;;;1.30;;
75191;SDS011;63771;52.580;9.734;2023-08-08T11:43:44;3.97;;;1.25;;
75191;SDS011;63771;52.580;9.734;2023-08-08T11:46:14;3.00;;;1.20;;
75191;SDS011;63771;52.580;9.734;2023-08-08T11:48:40;1.58;;;1.25;;
75191;SDS011;63771;52.580;9.734;2023-08-08T11:51:07;2.75;;;0.80;;
75191;SDS011;63771;52.580;9.734;2023-08-08T11:53:33;1.42;;;1.10;;
75191;SDS011;63771;52.580;9.734;2023-08-08T11:56:00;2.10;;;1.08;;
75191;SDS011;63771;52.580;9.734;2023-08-08T11:58:28;1.50;;;1.35;;
75191;SDS011;63771;52.580;9.734;2023-08-08T12:00:54;2.28;;;0.98;;
75191;SDS011;63771;52.580;9.734;2023-08-08T12:03:22;2.35;;;1.08;;
75191;SDS011;63771;52.580;9.734;2023-08-08T12:05:49;1.00;;;0.90;;
75191;SDS011;63771;52.580;9.734;2023-08-08T12:08:18;1.73;;;1.00;;
75191;SDS011;63771;52.580;9.734;2023-08-08T12:10:49;1.25;;;1.02;;
75191;SDS011;63771;52.580;9.734;2023-08-08T12:13:21;1.13;;;0.98;;
75191;SDS011;63771;52.580;9.734;2023-08-08T12:15:52;1.40;;;1.15;;
75191;SDS011;63771;52.580;9.734;2023-08-08T12:18:18;2.17;;;1.23;;
75191;SDS011;63771;52.580;9.734;2023-08-08T12:20:43;1.15;;;1.15;;
75191;SDS011;63771;52.580;9.734;2023-08-08T12:23:09;3.67;;;1.02;;
75191;SDS011;63771;52.580;9.734;2023-08-08T12:25:35;2.50;;;1.60;;
75191;SDS011;63771;52.580;9.734;2023-08-08T12:28:01;1.00;;;1.00;;
75191;SDS011;63771;52.580;9.734;2023-08-08T12:30:27;2.70;;;1.30;;
75191;SDS011;63771;52.580;9.734;2023-08-08T12:32:52;2.07;;;1.50;;
75191;SDS011;63771;52.580;9.734;2023-08-08T12:35:18;1.20;;;1.10;;
75191;SDS011;63771;52.580;9.734;2023-08-08T12:37:45;3.00;;;1.05;;
75191;SDS011;63771;52.580;9.734;2023-08-08T12:40:11;2.97;;;1.00;;
75191;SDS011;63771;52.580;9.734;2023-08-08T12:42:37;3.08;;;1.63;;
75191;SDS011;63771;52.580;9.734;2023-08-08T12:45:02;3.17;;;1.00;;
75191;SDS011;63771;52.580;9.734;2023-08-08T12:47:28;1.48;;;0.98;;
75191;SDS011;63771;52.580;9.734;2023-08-08T12:49:54;1.33;;;1.23;;
75191;SDS011;63771;52.580;9.734;2023-08-08T12:52:19;1.92;;;1.15;;
75191;SDS011;63771;52.580;9.734;2023-08-08T12:54:45;1.75;;;1.50;;
75191;SDS011;63771;52.580;9.734;2023-08-08T12:57:10;1.97;;;1.00;;
75191;SDS011;63771;52.580;9.734;2023-08-08T12:59:35;2.40;;;1.58;;
75191;SDS011;63771;52.580;9.734;2023-08-08T13:02:01;2.75;;;1.38;;
75191;SDS011;63771;52.580;9.734;2023-08-08T13:04:27;1.08;;;0.98;;
75191;SDS011;63771;52.580;9.734;2023-08-08T13:06:52;1.53;;;1.20;;
75191;SDS011;63771;52.580;9.734;2023-08-08T13:09:18;1.05;;;1.05;;
75191;SDS011;63771;52.580;9.734;2023-08-08T13:11:44;1.50;;;0.90;;
75191;SDS011;63771;52.580;9.734;2023-08-08T13:14:10;0.93;;;0.90;;
75191;SDS011;63771;52.580;9.734;2023-08-08T13:16:36;0.65;;;0.65;;
75191;SDS011;63771;52.580;9.734;2023-08-08T13:19:01;12.77;;;2.83;;
75191;SDS011;63771;52.580;9.734;2023-08-08T13:21:27;0.68;;;0.68;;
75191;SDS011;63771;52.580;9.734;2023-08-08T13:23:52;1.17;;;0.83;;
75191;SDS011;63771;52.580;9.734;2023-08-08T13:26:17;7.97;;;2.70;;
75191;SDS011;63771;52.580;9.734;2023-08-08T13:28:42;1.13;;;0.73;;
75191;SDS011;63771;52.580;9.734;2023-08-08T13:31:08;5.30;;;1.30;;
75191;SDS011;63771;52.580;9.734;2023-08-08T13:33:33;1.73;;;1.63;;
75191;SDS011;63771;52.580;9.734;2023-08-08T13:35:59;0.90;;;0.90;;
75191;SDS011;63771;52.580;9.734;2023-08-08T13:38:25;1.58;;;0.98;;
75191;SDS011;63771;52.580;9.734;2023-08-08T13:40:50;0.90;;;0.80;;
75191;SDS011;63771;52.580;9.734;2023-08-08T13:43:15;1.13;;;1.00;;
75191;SDS011;63771;52.580;9.734;2023-08-08T13:45:41;2.17;;;1.03;;
75191;SDS011;63771;52.580;9.734;2023-08-08T13:48:06;0.80;;;0.80;;
75191;SDS011;63771;52.580;9.734;2023-08-08T13:50:31;2.10;;;0.90;;
75191;SDS011;63771;52.580;9.734;2023-08-08T13:52:57;1.15;;;1.13;;
75191;SDS011;63771;52.580;9.734;2023-08-08T13:55:22;1.33;;;1.00;;
75191;SDS011;63771;52.580;9.734;2023-08-08T13:57:47;1.60;;;1.07;;
75191;SDS011;63771;52.580;9.734;2023-08-08T14:00:13;2.63;;;1.10;;
75191;SDS011;63771;52.580;9.734;2023-08-08T14:02:39;0.98;;;0.98;;
75191;SDS011;63771;52.580;9.734;2023-08-08T14:05:05;2.85;;;1.20;;
75191;SDS011;63771;52.580;9.734;2023-08-08T14:07:32;1.30;;;1.20;;
75191;SDS011;63771;52.580;9.734;2023-08-08T14:09:58;1.48;;;1.02;;
75191;SDS011;63771;52.580;9.734;2023-08-08T14:12:24;1.48;;;0.90;;
75191;SDS011;63771;52.580;9.734;2023-08-08T14:14:49;2.10;;;0.97;;
75191;SDS011;63771;52.580;9.734;2023-08-08T14:17:15;2.28;;;1.45;;
75191;SDS011;63771;52.580;9.734;2023-08-08T14:19:40;1.00;;;1.00;;
75191;SDS011;63771;52.580;9.734;2023-08-08T14:22:05;1.43;;;1.40;;
75191;SDS011;63771;52.580;9.734;2023-08-08T14:24:31;1.20;;;1.20;;
75191;SDS011;63771;52.580;9.734;2023-08-08T14:26:56;1.37;;;0.87;;
75191;SDS011;63771;52.580;9.734;2023-08-08T14:29:21;1.17;;;1.00;;
75191;SDS011;63771;52.580;9.734;2023-08-08T14:31:47;3.27;;;1.50;;
75191;SDS011;63771;52.580;9.734;2023-08-08T14:34:12;8.77;;;2.63;;
75191;SDS011;63771;52.580;9.734;2023-08-08T14:36:37;1.08;;;1.08;;
75191;SDS011;63771;52.580;9.734;2023-08-08T14:39:03;1.40;;;1.00;;
75191;SDS011;63771;52.580;9.734;2023-08-08T14:41:28;3.03;;;1.00;;
75191;SDS011;63771;52.580;9.734;2023-08-08T14:43:53;1.13;;;1.03;;
75191;SDS011;63771;52.580;9.734;2023-08-08T14:46:19;3.13;;;0.98;;
75191;SDS011;63771;52.580;9.734;2023-08-08T14:48:44;2.17;;;0.80;;
75191;SDS011;63771;52.580;9.734;2023-08-08T14:51:09;2.00;;;1.13;;
75191;SDS011;63771;52.580;9.734;2023-08-08T14:53:36;0.88;;;0.88;;